createdAt,value
2023-04-23T00:01:52.431Z,132.13
2023-04-23T00:04:22.134Z,125.53
2023-04-23T00:06:57.047Z,127.15
2023-04-23T00:09:27.184Z,129.63
2023-04-23T00:11:58.674Z,130.32
2023-04-23T00:14:27.018Z,135.02
2023-04-23T00:16:54.700Z,120.85
2023-04-23T00:19:23.312Z,122.93
2023-04-23T00:21:51.009Z,121.60
2023-04-23T00:24:19.997Z,121.45
2023-04-23T00:26:48.588Z,118.25
2023-04-23T00:29:16.351Z,118.40
2023-04-23T00:31:44.115Z,122.15
2023-04-23T00:34:12.251Z,113.40
2023-04-23T00:36:41.530Z,116.70
2023-04-23T00:39:09.994Z,114.20
2023-04-23T00:41:39.951Z,114.22
2023-04-23T00:44:07.702Z,111.13
2023-04-23T00:46:36.368Z,109.22
2023-04-23T00:49:04.918Z,103.28
2023-04-23T00:51:33.844Z,103.82
2023-04-23T00:54:04.357Z,106.22
2023-04-23T00:56:32.309Z,99.18
2023-04-23T00:59:04.487Z,91.00
2023-04-23T01:01:33.483Z,86.65
2023-04-23T01:04:05.043Z,89.43
2023-04-23T01:06:37.105Z,87.70
2023-04-23T01:09:08.613Z,83.73
2023-04-23T01:11:39.036Z,86.80
2023-04-23T01:14:06.851Z,84.13
2023-04-23T01:16:34.538Z,80.45
2023-04-23T01:19:02.549Z,76.53
2023-04-23T01:21:31.451Z,74.90
2023-04-23T01:24:00.735Z,70.22
2023-04-23T01:26:28.343Z,75.93
2023-04-23T01:29:02.009Z,69.70
2023-04-23T01:31:31.714Z,70.63
2023-04-23T01:33:59.825Z,63.30
2023-04-23T01:36:27.473Z,61.67
2023-04-23T01:38:55.333Z,60.35
2023-04-23T01:41:25.714Z,62.92
2023-04-23T01:43:53.800Z,55.92
2023-04-23T01:46:22.830Z,55.65
2023-04-23T01:48:52.392Z,56.03
2023-04-23T01:51:20.126Z,53.53
2023-04-23T01:53:50.039Z,56.55
2023-04-23T01:56:17.800Z,54.47
2023-04-23T01:58:45.930Z,47.20
2023-04-23T02:01:23.593Z,49.65
2023-04-23T02:03:59.330Z,51.80
2023-04-23T02:06:27.648Z,48.97
2023-04-23T02:09:06.147Z,51.10
2023-04-23T02:11:34.530Z,48.90
2023-04-23T02:14:03.322Z,46.63
2023-04-23T02:16:40.359Z,48.00
2023-04-23T02:19:08.491Z,49.92
2023-04-23T02:21:37.915Z,48.33
2023-04-23T02:24:05.808Z,49.75
2023-04-23T02:26:35.807Z,46.33
2023-04-23T02:29:06.641Z,47.30
2023-04-23T02:31:34.190Z,51.42
2023-04-23T02:34:04.555Z,46.70
2023-04-23T02:36:35.625Z,53.95
2023-04-23T02:39:04.380Z,49.13
2023-04-23T02:41:32.961Z,51.03
2023-04-23T02:44:02.267Z,50.90
2023-04-23T02:46:29.800Z,46.70
2023-04-23T02:48:57.452Z,49.50
2023-04-23T02:51:26.903Z,52.40
2023-04-23T02:53:54.939Z,50.92
2023-04-23T02:56:23.987Z,51.53
2023-04-23T02:58:51.776Z,50.63
2023-04-23T03:01:19.700Z,51.85
2023-04-23T03:03:47.639Z,49.08
2023-04-23T03:06:18.930Z,52.55
2023-04-23T03:08:47.483Z,49.33
2023-04-23T03:11:15.913Z,50.05
2023-04-23T03:13:43.226Z,48.72
2023-04-23T03:16:11.514Z,51.65
2023-04-23T03:18:41.895Z,52.38
2023-04-23T03:21:14.817Z,53.50
2023-04-23T03:23:46.065Z,52.72
2023-04-23T03:26:16.842Z,56.67
2023-04-23T03:28:44.673Z,49.72
2023-04-23T03:31:25.483Z,53.10
2023-04-23T03:34:00.835Z,51.88
2023-04-23T03:36:28.381Z,52.47
2023-04-23T03:38:56.108Z,52.60
2023-04-23T03:41:32.672Z,55.08
2023-04-23T03:44:07.145Z,50.10
2023-04-23T03:46:34.563Z,50.53
2023-04-23T03:49:01.990Z,52.95
2023-04-23T03:51:30.510Z,54.35
2023-04-23T03:53:58.176Z,53.15
2023-04-23T03:56:28.824Z,51.03
2023-04-23T03:58:56.187Z,52.95
2023-04-23T04:01:23.719Z,55.80
2023-04-23T04:03:51.719Z,55.38
2023-04-23T04:06:19.556Z,57.55
2023-04-23T04:08:47.485Z,54.83
2023-04-23T04:11:16.027Z,58.40
2023-04-23T04:16:55.910Z,57.45
2023-04-23T04:19:35.106Z,56.33
2023-04-23T04:22:03.833Z,62.90
2023-04-23T04:24:32.617Z,56.40
2023-04-23T04:27:00.539Z,54.13
2023-04-23T04:29:28.245Z,57.70
2023-04-23T04:31:59.219Z,54.35
2023-04-23T04:34:27.320Z,59.13
2023-04-23T04:36:54.846Z,59.88
2023-04-23T04:39:22.634Z,54.65
2023-04-23T04:41:50.049Z,58.17
2023-04-23T04:44:17.635Z,58.78
2023-04-23T04:46:45.099Z,53.60
2023-04-23T04:49:12.966Z,56.97
2023-04-23T04:51:41.384Z,53.08
2023-04-23T04:54:15.541Z,55.05
2023-04-23T04:56:44.610Z,55.95
2023-04-23T04:59:12.268Z,55.78
2023-04-23T05:01:42.640Z,55.53
2023-04-23T05:04:16.427Z,52.15
2023-04-23T05:06:46.849Z,50.40
2023-04-23T05:09:35.865Z,50.13
2023-04-23T05:12:05.554Z,48.25
2023-04-23T05:14:36.950Z,49.35
2023-04-23T05:17:04.467Z,48.15
2023-04-23T05:19:32.465Z,47.55
2023-04-23T05:21:59.968Z,46.15
2023-04-23T05:24:27.263Z,45.00
2023-04-23T05:26:54.966Z,44.53
2023-04-23T05:29:22.205Z,45.38
2023-04-23T05:31:49.534Z,45.72
2023-04-23T05:34:16.895Z,45.28
2023-04-23T05:36:44.588Z,43.83
2023-04-23T05:39:12.215Z,46.47
2023-04-23T05:41:39.528Z,43.40
2023-04-23T05:44:06.855Z,42.08
2023-04-23T05:46:37.438Z,38.80
2023-04-23T05:49:04.835Z,39.88
2023-04-23T05:51:32.197Z,39.88
2023-04-23T05:53:59.611Z,37.67
2023-04-23T05:56:27.099Z,40.58
2023-04-23T05:58:54.580Z,37.17
2023-04-23T06:01:21.983Z,37.83
2023-04-23T06:03:49.515Z,37.20
2023-04-23T06:06:16.916Z,33.35
2023-04-23T06:08:44.799Z,33.65
2023-04-23T06:11:12.102Z,33.88
2023-04-23T06:13:43.460Z,37.35
2023-04-23T06:16:11.255Z,32.58
2023-04-23T06:18:42.177Z,27.70
2023-04-23T06:21:09.819Z,24.25
2023-04-23T06:23:37.330Z,23.35
2023-04-23T06:26:04.811Z,20.10
2023-04-23T06:28:32.370Z,21.80
2023-04-23T06:30:59.745Z,21.15
2023-04-23T06:33:27.336Z,21.27
2023-04-23T06:35:54.712Z,18.90
2023-04-23T06:38:23.058Z,18.42
2023-04-23T06:40:50.395Z,19.58
2023-04-23T06:43:17.796Z,18.33
2023-04-23T06:45:45.173Z,16.58
2023-04-23T06:48:12.557Z,15.43
2023-04-23T06:50:40.468Z,16.25
2023-04-23T06:53:07.795Z,14.45
2023-04-23T06:55:35.443Z,16.35
2023-04-23T06:58:03.481Z,18.00
2023-04-23T07:00:31.654Z,22.38
2023-04-23T07:02:59.387Z,15.43
2023-04-23T07:05:26.868Z,15.60
2023-04-23T07:07:54.162Z,14.93
2023-04-23T07:10:21.622Z,14.32
2023-04-23T07:12:49.770Z,11.70
2023-04-23T07:15:17.180Z,14.15
2023-04-23T07:17:44.558Z,12.18
2023-04-23T07:20:12.171Z,14.18
2023-04-23T07:22:39.767Z,13.98
2023-04-23T07:25:08.765Z,11.18
2023-04-23T07:27:36.474Z,13.90
2023-04-23T07:30:05.134Z,12.20
2023-04-23T07:32:32.831Z,12.50
2023-04-23T07:35:00.189Z,14.10
2023-04-23T07:37:27.537Z,13.95
2023-04-23T07:39:54.910Z,12.80
2023-04-23T07:42:22.254Z,13.35
2023-04-23T07:44:49.612Z,13.38
2023-04-23T07:47:17.101Z,16.90
2023-04-23T07:49:44.852Z,13.23
2023-04-23T07:52:12.229Z,13.23
2023-04-23T07:54:39.610Z,12.93
2023-04-23T07:57:06.633Z,17.17
2023-04-23T07:59:33.669Z,12.07
2023-04-23T08:02:00.547Z,15.93
2023-04-23T08:04:27.798Z,13.73
2023-04-23T08:06:54.965Z,15.20
2023-04-23T08:09:22.321Z,12.98
2023-04-23T08:11:49.861Z,14.00
2023-04-23T08:14:17.913Z,13.43
2023-04-23T08:16:45.453Z,15.98
2023-04-23T08:19:12.849Z,14.00
2023-04-23T08:21:40.278Z,14.48
2023-04-23T08:24:08.061Z,15.65
2023-04-23T08:26:35.495Z,17.52
2023-04-23T08:29:03.233Z,13.68
2023-04-23T08:31:30.749Z,16.30
2023-04-23T08:33:58.251Z,13.07
2023-04-23T08:36:26.797Z,16.83
2023-04-23T08:38:54.297Z,14.75
2023-04-23T08:41:24.468Z,16.08
2023-04-23T08:44:19.137Z,16.85
2023-04-23T08:46:47.046Z,16.50
2023-04-23T08:49:18.173Z,13.18
2023-04-23T08:51:55.681Z,16.13
2023-04-23T08:54:29.486Z,18.80
2023-04-23T08:56:58.511Z,14.60
2023-04-23T08:59:32.074Z,12.82
2023-04-23T09:02:01.400Z,17.65
2023-04-23T09:04:32.342Z,15.90
2023-04-23T09:07:00.365Z,16.85
2023-04-23T09:09:29.517Z,15.85
2023-04-23T09:11:57.441Z,14.63
2023-04-23T09:14:25.667Z,18.08
2023-04-23T09:16:53.923Z,12.27
2023-04-23T09:19:21.418Z,16.75
2023-04-23T09:21:48.880Z,15.18
2023-04-23T09:24:17.892Z,15.85
2023-04-23T09:26:47.061Z,12.98
2023-04-23T09:29:19.286Z,15.23
2023-04-23T09:31:49.551Z,11.48
2023-04-23T09:34:21.736Z,13.32
2023-04-23T09:36:50.824Z,11.68
2023-04-23T09:39:24.239Z,12.70
2023-04-23T09:41:54.631Z,14.40
2023-04-23T09:44:23.184Z,12.65
2023-04-23T09:46:50.890Z,14.70
2023-04-23T09:49:18.286Z,11.98
2023-04-23T09:51:47.778Z,16.90
2023-04-23T09:54:16.568Z,14.10
2023-04-23T09:56:44.958Z,13.10
2023-04-23T09:59:39.549Z,11.35
2023-04-23T10:02:14.151Z,11.02
2023-04-23T10:04:42.002Z,12.48
2023-04-23T10:09:44.220Z,14.35
2023-04-23T10:14:42.223Z,7.57
2023-04-23T10:17:10.314Z,12.45
2023-04-23T10:19:43.599Z,12.93
2023-04-23T10:22:19.467Z,10.30
2023-04-23T10:24:52.365Z,14.10
2023-04-23T10:29:51.141Z,12.48
2023-04-23T10:32:19.061Z,16.55
2023-04-23T10:34:49.510Z,11.68
2023-04-23T10:37:19.332Z,11.43
2023-04-23T10:39:50.785Z,13.02
2023-04-23T10:42:18.877Z,11.60
2023-04-23T10:44:57.900Z,10.70
2023-04-23T10:47:28.488Z,10.93
2023-04-23T10:49:57.827Z,8.52
2023-04-23T10:52:26.088Z,12.20
2023-04-23T10:55:02.522Z,10.73
2023-04-23T10:57:30.281Z,8.18
2023-04-23T10:59:59.188Z,9.05
2023-04-23T11:02:27.426Z,10.80
2023-04-23T11:04:59.405Z,10.75
2023-04-23T11:07:31.459Z,10.20
2023-04-23T11:10:12.915Z,8.48
2023-04-23T11:12:41.021Z,8.73
2023-04-23T11:15:17.411Z,10.20
2023-04-23T11:17:44.809Z,9.50
2023-04-23T11:20:22.676Z,8.70
2023-04-23T11:22:51.921Z,9.65
2023-04-23T11:25:24.122Z,11.80
2023-04-23T11:27:53.260Z,11.98
2023-04-23T11:30:25.567Z,12.23
2023-04-23T11:32:54.915Z,8.57
2023-04-23T11:35:24.685Z,9.45
2023-04-23T11:37:52.248Z,10.65
2023-04-23T11:40:20.282Z,8.90
2023-04-23T11:42:49.768Z,11.02
2023-04-23T11:45:28.509Z,6.55
2023-04-23T11:48:01.443Z,9.50
2023-04-23T11:50:30.872Z,8.82
2023-04-23T11:52:58.557Z,8.73
2023-04-23T11:55:26.493Z,11.68
2023-04-23T11:57:53.858Z,10.02
2023-04-23T12:00:23.746Z,11.57
2023-04-23T12:02:55.337Z,7.30
2023-04-23T12:05:27.875Z,6.95
2023-04-23T12:07:58.335Z,9.18
2023-04-23T12:10:25.843Z,9.23
2023-04-23T12:12:53.470Z,8.02
2023-04-23T12:15:21.488Z,6.85
2023-04-23T12:17:50.479Z,6.75
2023-04-23T12:20:22.017Z,10.27
2023-04-23T12:22:50.696Z,10.38
2023-04-23T12:25:23.851Z,10.77
2023-04-23T12:27:51.396Z,12.20
2023-04-23T12:30:19.070Z,8.10
2023-04-23T12:32:46.765Z,7.10
2023-04-23T12:35:14.474Z,9.85
2023-04-23T12:37:42.996Z,11.00
2023-04-23T12:40:13.192Z,10.02
2023-04-23T12:42:43.533Z,8.82
2023-04-23T12:45:11.537Z,8.00
2023-04-23T12:47:45.621Z,9.38
2023-04-23T12:50:28.419Z,9.23
2023-04-23T12:53:04.214Z,8.00
2023-04-23T12:55:38.568Z,8.52
2023-04-23T12:58:25.689Z,7.55
2023-04-23T13:00:53.195Z,7.03
2023-04-23T13:03:29.981Z,12.10
2023-04-23T13:05:57.399Z,9.40
2023-04-23T13:08:24.770Z,10.85
2023-04-23T13:10:52.101Z,11.57
2023-04-23T13:13:19.490Z,11.00
2023-04-23T13:15:47.171Z,12.02
2023-04-23T13:18:15.017Z,11.75
2023-04-23T13:20:43.200Z,9.68
2023-04-23T13:23:12.213Z,8.13
2023-04-23T13:25:39.811Z,9.40
2023-04-23T13:28:07.544Z,9.27
2023-04-23T13:30:34.930Z,11.82
2023-04-23T13:33:02.374Z,9.82
2023-04-23T13:35:29.798Z,8.25
2023-04-23T13:37:57.275Z,9.77
2023-04-23T13:40:24.719Z,10.75
2023-04-23T13:42:53.194Z,10.45
2023-04-23T13:45:20.486Z,9.18
2023-04-23T13:47:48.128Z,7.95
2023-04-23T13:50:15.581Z,8.93
2023-04-23T13:52:42.970Z,9.18
2023-04-23T13:55:10.457Z,10.38
2023-04-23T13:57:38.548Z,10.50
2023-04-23T14:00:06.646Z,10.48
2023-04-23T14:02:34.314Z,11.05
2023-04-23T14:05:03.824Z,10.00
2023-04-23T14:07:31.200Z,12.73
2023-04-23T14:09:58.732Z,9.10
2023-04-23T14:12:29.537Z,9.38
2023-04-23T14:14:56.905Z,12.80
2023-04-23T14:17:24.283Z,11.25
2023-04-23T14:19:51.684Z,12.10
2023-04-23T14:22:19.091Z,12.75
2023-04-23T14:24:49.853Z,13.25
2023-04-23T14:27:17.553Z,15.00
2023-04-23T14:29:55.894Z,13.18
2023-04-23T14:32:23.392Z,13.68
2023-04-23T14:34:51.506Z,15.10
2023-04-23T14:37:18.970Z,11.07
2023-04-23T14:39:46.897Z,12.02
2023-04-23T14:42:14.305Z,11.93
2023-04-23T14:44:41.728Z,12.90
2023-04-23T14:47:12.259Z,12.68
2023-04-23T14:49:41.823Z,10.85
2023-04-23T14:52:09.546Z,9.45
2023-04-23T14:54:36.891Z,8.10
2023-04-23T14:57:04.766Z,7.63
2023-04-23T14:59:32.084Z,10.10
2023-04-23T15:02:00.925Z,10.85
2023-04-23T15:04:28.734Z,12.40
2023-04-23T15:06:56.209Z,6.43
2023-04-23T15:09:23.581Z,10.27
2023-04-23T15:11:50.917Z,10.10
2023-04-23T15:14:26.585Z,8.90
2023-04-23T15:16:54.217Z,12.27
2023-04-23T15:19:21.763Z,8.13
2023-04-23T15:21:49.309Z,7.78
2023-04-23T15:24:17.221Z,10.75
2023-04-23T15:26:46.088Z,7.72
2023-04-23T15:29:13.955Z,6.25
2023-04-23T15:31:41.881Z,8.45
2023-04-23T15:34:09.718Z,6.57
2023-04-23T15:36:38.076Z,10.40
2023-04-23T15:39:06.894Z,4.38
2023-04-23T15:41:35.275Z,4.82
2023-04-23T15:44:03.527Z,5.93
2023-04-23T15:46:30.959Z,5.35
2023-04-23T15:48:58.274Z,7.05
2023-04-23T15:51:25.628Z,9.23
2023-04-23T15:53:53.302Z,7.45
2023-04-23T15:56:20.753Z,7.55
2023-04-23T15:58:48.829Z,9.75
2023-04-23T16:01:17.451Z,9.68
2023-04-23T16:03:57.592Z,7.20
2023-04-23T16:06:29.648Z,11.10
2023-04-23T16:08:57.057Z,8.18
2023-04-23T16:11:27.670Z,8.07
2023-04-23T16:13:56.984Z,11.07
2023-04-23T16:16:24.371Z,14.90
2023-04-23T16:18:51.697Z,8.35
2023-04-23T16:21:19.010Z,7.32
2023-04-23T16:23:46.344Z,9.73
2023-04-23T16:26:13.732Z,10.02
2023-04-23T16:28:41.194Z,7.50
2023-04-23T16:31:08.627Z,10.60
2023-04-23T16:33:36.143Z,11.60
2023-04-23T16:36:03.719Z,9.77
2023-04-23T16:38:31.076Z,10.75
2023-04-23T16:40:58.456Z,10.25
2023-04-23T16:43:26.128Z,8.25
2023-04-23T16:45:53.571Z,9.98
2023-04-23T16:48:21.768Z,6.55
2023-04-23T16:50:49.375Z,7.35
2023-04-23T16:53:17.058Z,10.57
2023-04-23T16:55:45.792Z,5.72
2023-04-23T16:58:13.191Z,5.13
2023-04-23T17:00:40.716Z,7.80
2023-04-23T17:03:08.249Z,8.43
2023-04-23T17:05:35.789Z,8.93
2023-04-23T17:08:03.196Z,8.32
2023-04-23T17:10:31.081Z,7.47
2023-04-23T17:13:00.897Z,7.88
2023-04-23T17:15:28.256Z,6.82
2023-04-23T17:17:55.718Z,8.70
2023-04-23T17:20:23.213Z,5.95
2023-04-23T17:22:50.719Z,7.68
2023-04-23T17:25:18.158Z,7.72
2023-04-23T17:27:45.497Z,6.93
2023-04-23T17:30:13.353Z,7.10
2023-04-23T17:32:40.727Z,8.55
2023-04-23T17:35:10.711Z,8.55
2023-04-23T17:37:38.382Z,9.07
2023-04-23T17:40:06.317Z,9.30
2023-04-23T17:42:34.132Z,9.48
2023-04-23T17:45:01.610Z,11.07
2023-04-23T17:47:29.111Z,8.73
2023-04-23T17:49:56.716Z,7.78
2023-04-23T17:52:24.152Z,8.50
2023-04-23T17:54:51.577Z,7.40
2023-04-23T17:57:18.956Z,9.52
2023-04-23T17:59:46.608Z,6.25
2023-04-23T18:02:14.333Z,9.93
2023-04-23T18:04:42.166Z,8.30
2023-04-23T18:07:09.602Z,6.90
2023-04-23T18:09:37.064Z,9.35
2023-04-23T18:12:05.160Z,6.85
2023-04-23T18:14:32.656Z,10.32
2023-04-23T18:17:00.044Z,8.98
2023-04-23T18:19:27.587Z,10.57
2023-04-23T18:21:55.798Z,9.45
2023-04-23T18:24:23.273Z,8.60
2023-04-23T18:26:52.123Z,7.68
2023-04-23T18:29:19.858Z,10.30
2023-04-23T18:31:47.214Z,8.18
2023-04-23T18:34:17.608Z,8.45
2023-04-23T18:36:45.035Z,11.23
2023-04-23T18:39:12.701Z,10.43
2023-04-23T18:41:40.078Z,10.65
2023-04-23T18:44:07.734Z,11.43
2023-04-23T18:46:35.114Z,10.77
2023-04-23T18:49:06.779Z,10.45
2023-04-23T18:51:58.522Z,12.65
2023-04-23T18:54:27.095Z,9.88
2023-04-23T18:56:54.722Z,11.05
2023-04-23T18:59:22.111Z,8.82
2023-04-23T19:01:49.833Z,10.73
2023-04-23T19:04:17.585Z,11.07
2023-04-23T19:06:45.023Z,10.75
2023-04-23T19:09:12.370Z,8.60
2023-04-23T19:11:40.371Z,9.73
2023-04-23T19:14:07.838Z,12.95
2023-04-23T19:16:35.450Z,11.95
2023-04-23T19:19:02.990Z,13.70
2023-04-23T19:21:31.729Z,13.52
2023-04-23T19:23:59.128Z,13.20
2023-04-23T19:26:26.569Z,5.75
2023-04-23T19:28:54.389Z,6.70
2023-04-23T19:31:21.856Z,4.70
2023-04-23T19:33:49.278Z,5.32
2023-04-23T19:36:16.616Z,2.13
2023-04-23T19:38:44.067Z,2.15
2023-04-23T19:41:11.407Z,4.10
2023-04-23T19:43:40.373Z,1.85
2023-04-23T19:46:08.221Z,3.40
2023-04-23T19:48:35.745Z,2.65
2023-04-23T19:51:03.096Z,2.13
2023-04-23T19:53:30.495Z,3.28
2023-04-23T19:55:57.889Z,2.30
2023-04-23T19:58:25.492Z,2.20
2023-04-23T20:00:52.930Z,6.63
2023-04-23T20:03:20.980Z,2.97
2023-04-23T20:05:49.802Z,3.20
2023-04-23T20:08:26.054Z,2.75
2023-04-23T20:10:54.120Z,3.40
2023-04-23T20:13:21.705Z,4.50
2023-04-23T20:15:50.177Z,3.40
2023-04-23T20:18:17.948Z,3.28
2023-04-23T20:20:45.764Z,1.70
2023-04-23T20:23:13.092Z,3.10
2023-04-23T20:25:40.577Z,2.03
2023-04-23T20:28:09.518Z,1.85
2023-04-23T20:30:37.164Z,2.20
2023-04-23T20:33:04.657Z,3.72
2023-04-23T20:35:33.667Z,3.67
2023-04-23T20:38:01.054Z,2.40
2023-04-23T20:40:28.416Z,2.60
2023-04-23T20:42:58.563Z,4.25
2023-04-23T20:45:26.001Z,6.32
2023-04-23T20:47:54.456Z,3.80
2023-04-23T20:50:22.335Z,3.15
2023-04-23T20:52:50.253Z,2.80
2023-04-23T20:55:17.785Z,3.40
2023-04-23T20:57:45.580Z,4.63
2023-04-23T21:00:14.263Z,4.70
2023-04-23T21:02:41.855Z,7.70
2023-04-23T21:05:11.294Z,9.98
2023-04-23T21:07:38.679Z,7.75
2023-04-23T21:10:07.129Z,6.45
2023-04-23T21:12:34.607Z,7.18
2023-04-23T21:15:01.946Z,6.93
2023-04-23T21:17:29.385Z,5.78
2023-04-23T21:19:56.784Z,4.63
2023-04-23T21:22:24.202Z,6.10
2023-04-23T21:24:51.610Z,7.03
2023-04-23T21:27:21.867Z,8.13
2023-04-23T21:29:49.717Z,4.50
2023-04-23T21:32:17.372Z,5.68
2023-04-23T21:34:44.696Z,3.08
2023-04-23T21:37:12.089Z,3.53
2023-04-23T21:39:39.521Z,2.90
2023-04-23T21:42:07.439Z,3.88
2023-04-23T21:44:36.586Z,3.40
2023-04-23T21:47:04.738Z,3.67
2023-04-23T21:49:32.816Z,3.35
2023-04-23T21:52:02.187Z,4.60
2023-04-23T21:54:29.630Z,4.88
2023-04-23T21:56:56.988Z,5.35
2023-04-23T21:59:24.814Z,2.80
2023-04-23T22:01:52.246Z,3.33
2023-04-23T22:04:20.571Z,6.72
2023-04-23T22:06:48.022Z,7.00
2023-04-23T22:09:15.893Z,4.88
2023-04-23T22:11:55.275Z,5.10
2023-04-23T22:14:28.323Z,3.38
2023-04-23T22:16:55.723Z,6.40
2023-04-23T22:19:23.235Z,6.95
2023-04-23T22:21:50.717Z,6.30
2023-04-23T22:24:18.150Z,5.88
2023-04-23T22:26:45.830Z,4.22
2023-04-23T22:29:13.624Z,5.45
2023-04-23T22:31:41.056Z,4.93
2023-04-23T22:34:08.549Z,2.63
2023-04-23T22:36:35.876Z,3.10
2023-04-23T22:39:04.709Z,2.95
2023-04-23T22:41:33.806Z,5.38
2023-04-23T22:44:01.487Z,5.82
2023-04-23T22:46:28.892Z,6.32
2023-04-23T22:48:56.362Z,7.25
2023-04-23T22:51:24.989Z,7.40
2023-04-23T22:53:52.349Z,7.93
2023-04-23T22:56:19.987Z,11.50
2023-04-23T22:58:47.413Z,11.75
2023-04-23T23:01:14.804Z,7.07
2023-04-23T23:03:42.363Z,6.38
2023-04-23T23:06:09.850Z,5.60
2023-04-23T23:08:37.274Z,4.50
2023-04-23T23:11:04.684Z,6.88
2023-04-23T23:13:32.290Z,6.53
2023-04-23T23:16:02.342Z,10.48
2023-04-23T23:18:29.752Z,10.10
2023-04-23T23:20:57.165Z,7.78
2023-04-23T23:23:24.773Z,8.10
2023-04-23T23:25:52.117Z,5.43
2023-04-23T23:28:19.489Z,6.65
2023-04-23T23:30:47.976Z,5.45
2023-04-23T23:33:16.456Z,6.68
2023-04-23T23:35:43.952Z,9.65
2023-04-23T23:38:11.924Z,7.13
2023-04-23T23:40:39.399Z,7.35
2023-04-23T23:43:06.860Z,6.97
2023-04-23T23:45:34.546Z,7.28
2023-04-23T23:48:02.122Z,6.40
2023-04-23T23:50:29.592Z,5.65
2023-04-23T23:52:56.933Z,5.15
2023-04-23T23:55:24.277Z,5.50
2023-04-23T23:57:51.671Z,4.55
